Evansville (EVV/KEVV)

Map

Destinations

Information

Location
Evansville, IN
Local Time
14:15 / 2:15 pm
GMT Time
18:15 / 6:15 pm
Gates
A2
No FAA reported delays
METAR KEVV 201754Z 23008KT 10SM SCT037 BKN048 29/22 A2998 RMK AO2 SLP148 T02940217 10311 20194 58012
TAF KEVV 201720Z 2018/2118 21009KT P6SM SCT040 FM210100 00000KT P6SM SKC FM211500 19008KT P6SM SCT035